createdAt,value
2019-05-14T00:02:02.802Z,100139.44
2019-05-14T00:04:06.407Z,100139.48
2019-05-14T00:06:11.461Z,100136.22
2019-05-14T00:08:17.628Z,100132.68
2019-05-14T00:10:21.950Z,100137.48
2019-05-14T00:12:33.543Z,100129.54
2019-05-14T00:14:40.377Z,100124.63
2019-05-14T00:16:43.580Z,100121.57
2019-05-14T00:18:47.554Z,100128.36
2019-05-14T00:20:51.881Z,100132.44
2019-05-14T00:22:55.916Z,100140.33
2019-05-14T00:25:01.140Z,100152.39
2019-05-14T00:27:07.027Z,100140.51
2019-05-14T00:29:11.560Z,100140.56
2019-05-14T00:31:15.921Z,100139.41
2019-05-14T00:33:22.585Z,100137.28
2019-05-14T00:35:26.586Z,100126.81
2019-05-14T00:37:33.931Z,100125.33
2019-05-14T00:39:41.349Z,100127.27
2019-05-14T00:41:46.137Z,100122.95
2019-05-14T00:43:51.356Z,100116.72
2019-05-14T00:45:55.520Z,100109.88
2019-05-14T00:48:08.300Z,100110.13
2019-05-14T00:50:12.912Z,100113.43
2019-05-14T00:52:17.265Z,100105.67
2019-05-14T00:54:21.662Z,100106.86
2019-05-14T00:56:25.794Z,100106.27
2019-05-14T00:58:31.005Z,100098.43
2019-05-14T01:00:35.431Z,100100.84
2019-05-14T01:02:41.547Z,100097.28
2019-05-14T01:04:45.145Z,100097.41
2019-05-14T01:06:51.108Z,100099.99
2019-05-14T01:08:56.325Z,100094.10
2019-05-14T01:11:01.625Z,100097.61
2019-05-14T01:13:05.982Z,100104.77
2019-05-14T01:15:14.227Z,100100.91
2019-05-14T01:17:19.130Z,100099.29
2019-05-14T01:19:23.242Z,100104.88
2019-05-14T01:21:28.296Z,100105.86
2019-05-14T01:23:32.487Z,100106.00
2019-05-14T01:25:36.429Z,100103.08
2019-05-14T01:27:41.329Z,100100.10
2019-05-14T01:29:45.378Z,100099.91
2019-05-14T01:31:51.877Z,100093.58
2019-05-14T01:33:55.345Z,100098.09
2019-05-14T01:36:01.801Z,100104.91
2019-05-14T01:38:05.106Z,100103.62
2019-05-14T01:40:11.441Z,100107.48
2019-05-14T01:42:14.987Z,100105.15
2019-05-14T01:44:21.196Z,100099.94
2019-05-14T01:46:28.618Z,100100.81
2019-05-14T01:48:32.659Z,100099.53
2019-05-14T01:50:36.701Z,100101.45
2019-05-14T01:52:41.581Z,100101.45
2019-05-14T01:54:45.763Z,100100.47
2019-05-14T01:56:55.606Z,100099.12
2019-05-14T01:59:01.729Z,100096.92
2019-05-14T02:01:05.420Z,100100.71
2019-05-14T02:03:11.987Z,100090.11
2019-05-14T02:05:15.429Z,100095.59
2019-05-14T02:07:21.920Z,100093.76
2019-05-14T02:09:25.211Z,100092.80
2019-05-14T02:11:32.084Z,100093.88
2019-05-14T02:13:35.851Z,100096.31
2019-05-14T02:15:42.898Z,100094.76
2019-05-14T02:17:45.714Z,100093.75
2019-05-14T02:19:51.491Z,100083.22
2019-05-14T02:21:56.825Z,100082.20
2019-05-14T02:24:02.051Z,100086.70
2019-05-14T02:26:06.252Z,100083.69
2019-05-14T02:28:11.577Z,100082.50
2019-05-14T02:30:19.158Z,100080.13
2019-05-14T02:32:21.596Z,100077.09
2019-05-14T02:34:25.639Z,100078.84
2019-05-14T02:36:30.935Z,100077.35
2019-05-14T02:38:35.010Z,100075.02
2019-05-14T02:40:42.265Z,100070.98
2019-05-14T02:42:49.461Z,100077.67
2019-05-14T02:44:52.419Z,100076.03
2019-05-14T02:46:59.072Z,100075.70
2019-05-14T02:49:02.181Z,100071.83
2019-05-14T02:51:06.344Z,100081.62
2019-05-14T02:53:10.542Z,100080.80
2019-05-14T02:55:14.863Z,100076.41
2019-05-14T02:57:20.109Z,100077.95
2019-05-14T02:59:24.139Z,100074.84
2019-05-14T03:01:30.180Z,100066.64
2019-05-14T03:03:35.455Z,100070.06
2019-05-14T03:05:45.210Z,100072.48
2019-05-14T03:07:50.163Z,100066.45
2019-05-14T03:09:54.257Z,100066.36
2019-05-14T03:11:59.487Z,100063.22
2019-05-14T03:14:03.965Z,100057.52
2019-05-14T03:16:22.226Z,100060.79
2019-05-14T03:18:13.695Z,100058.61
2019-05-14T03:20:19.700Z,100058.97
2019-05-14T03:22:28.497Z,100056.58
2019-05-14T03:24:29.775Z,100049.16
2019-05-14T03:26:33.908Z,100048.00
2019-05-14T03:28:39.943Z,100044.11
2019-05-14T03:30:44.612Z,100045.97
2019-05-14T03:32:52.708Z,100045.97
2019-05-14T03:34:55.586Z,100044.11
2019-05-14T03:37:03.325Z,100041.41
2019-05-14T03:39:10.240Z,100036.33
2019-05-14T03:41:14.227Z,100037.34
2019-05-14T03:43:20.065Z,100041.53
2019-05-14T03:45:29.850Z,100040.17
2019-05-14T03:47:33.042Z,100033.43
2019-05-14T03:49:39.789Z,100034.19
2019-05-14T03:51:43.741Z,100032.35
2019-05-14T03:53:57.231Z,100032.70
2019-05-14T03:55:53.898Z,100039.47
2019-05-14T03:57:59.480Z,100036.45
2019-05-14T04:00:03.950Z,100032.06
2019-05-14T04:02:10.006Z,100033.36
2019-05-14T04:04:14.368Z,100037.42
2019-05-14T04:06:19.536Z,100033.36
2019-05-14T04:08:29.056Z,100033.00
2019-05-14T04:10:32.655Z,100030.64
2019-05-14T04:12:40.335Z,100036.75
2019-05-14T04:14:49.965Z,100029.93
2019-05-14T04:17:05.186Z,100038.68
2019-05-14T04:19:03.276Z,100038.66
2019-05-14T04:21:10.013Z,100034.32
2019-05-14T04:23:19.687Z,100045.72
2019-05-14T04:25:22.017Z,100038.02
2019-05-14T04:27:29.806Z,100032.24
2019-05-14T04:29:34.986Z,100034.21
2019-05-14T04:31:42.367Z,100032.73
2019-05-14T04:33:50.074Z,100033.69
2019-05-14T04:35:53.624Z,100036.67
2019-05-14T04:37:58.897Z,100025.61
2019-05-14T04:40:10.041Z,100035.59
2019-05-14T04:42:13.245Z,100035.27
2019-05-14T04:44:19.389Z,100039.32
2019-05-14T04:46:23.904Z,100037.83
2019-05-14T04:48:37.294Z,100046.30
2019-05-14T04:50:40.240Z,100038.67
2019-05-14T04:52:43.002Z,100035.62
2019-05-14T04:54:49.970Z,100036.98
2019-05-14T04:56:59.691Z,100034.41
2019-05-14T04:59:03.529Z,100036.95
2019-05-14T05:01:09.921Z,100029.61
2019-05-14T05:03:13.843Z,100029.67
2019-05-14T05:05:19.590Z,100032.63
2019-05-14T05:11:31.394Z,100033.80
2019-05-14T05:14:08.749Z,100029.67
2019-05-14T05:17:44.083Z,100031.16
2019-05-14T05:19:39.903Z,100029.94
2019-05-14T05:21:58.697Z,100035.32
2019-05-14T05:36:48.521Z,100033.92
2019-05-14T05:41:55.502Z,100033.47
2019-05-14T05:44:15.179Z,100028.73
2019-05-14T05:47:18.526Z,100031.83
2019-05-14T05:49:25.777Z,100035.97
2019-05-14T05:51:31.420Z,100030.66
2019-05-14T05:53:39.047Z,100031.34
2019-05-14T05:56:04.434Z,100029.06
2019-05-14T05:58:19.687Z,100027.08
2019-05-14T06:00:39.835Z,100024.57
2019-05-14T06:03:13.649Z,100027.19
2019-05-14T06:05:22.159Z,100027.55
2019-05-14T06:08:23.201Z,100025.42
2019-05-14T06:10:41.283Z,100029.23
2019-05-14T06:12:49.207Z,100019.58
2019-05-14T06:15:43.901Z,100018.77
2019-05-14T06:18:09.349Z,100017.23
2019-05-14T06:20:23.824Z,100019.03
2019-05-14T06:22:29.622Z,100015.48
2019-05-14T06:24:38.873Z,100014.55
2019-05-14T06:27:03.017Z,100005.45
2019-05-14T06:29:25.374Z,100004.81
2019-05-14T06:31:32.502Z,100008.79
2019-05-14T06:33:48.400Z,100002.91
2019-05-14T06:36:33.869Z,99999.23
2019-05-14T06:38:40.853Z,100005.70
2019-05-14T06:41:21.336Z,100000.16
2019-05-14T06:43:53.685Z,99997.63
2019-05-14T06:46:44.476Z,99995.88
2019-05-14T06:50:08.411Z,100008.23
2019-05-14T06:52:09.969Z,99994.47
2019-05-14T06:54:21.855Z,99998.41
2019-05-14T06:56:28.387Z,99993.98
2019-05-14T06:58:58.485Z,99993.09
2019-05-14T07:04:40.493Z,99986.10
2019-05-14T07:07:04.302Z,99980.71
2019-05-14T07:09:18.550Z,99980.28
2019-05-14T07:11:49.204Z,99984.88
2019-05-14T07:14:15.212Z,99979.31
2019-05-14T07:16:28.476Z,99978.48
2019-05-14T07:18:45.418Z,99975.47
2019-05-14T07:20:48.666Z,99965.38
2019-05-14T07:22:58.691Z,99969.27
2019-05-14T07:25:03.419Z,99975.35
2019-05-14T07:31:18.604Z,99970.26
2019-05-14T07:33:33.630Z,99969.53
2019-05-14T07:35:48.965Z,99968.09
2019-05-14T07:38:00.829Z,99965.05
2019-05-14T07:40:30.698Z,99966.13
2019-05-14T07:42:40.312Z,99965.25
2019-05-14T07:45:38.760Z,99965.77
2019-05-14T07:48:09.757Z,99971.13
2019-05-14T07:50:29.082Z,99972.70
2019-05-14T07:52:50.246Z,99970.75
2019-05-14T07:55:40.293Z,99968.08
2019-05-14T07:58:52.438Z,99959.32
2019-05-14T08:01:33.606Z,99954.45
2019-05-14T08:04:28.846Z,99958.78
2019-05-14T08:10:28.936Z,99951.36
2019-05-14T08:16:08.779Z,99941.55
2019-05-14T08:18:35.974Z,99949.47
2019-05-14T08:20:53.166Z,99945.77
2019-05-14T08:23:33.475Z,99942.66
2019-05-14T08:25:48.149Z,99947.50
2019-05-14T08:28:29.180Z,99936.26
2019-05-14T08:30:49.083Z,99932.78
2019-05-14T08:33:08.785Z,99936.26
2019-05-14T08:35:34.120Z,99934.94
2019-05-14T08:37:42.409Z,99937.16
2019-05-14T08:42:42.073Z,99935.05
2019-05-14T08:45:14.463Z,99926.09
2019-05-14T08:47:44.163Z,99925.28
2019-05-14T08:50:02.373Z,99924.13
2019-05-14T08:52:35.055Z,99930.57
2019-05-14T08:54:46.211Z,99921.42
2019-05-14T08:57:38.852Z,99916.34
2019-05-14T09:00:14.528Z,99928.76
2019-05-14T09:02:35.668Z,99921.61
2019-05-14T09:04:55.374Z,99925.03
2019-05-14T09:07:03.079Z,99926.34
2019-05-14T09:09:48.807Z,99935.59
2019-05-14T09:12:00.780Z,99925.44
2019-05-14T09:14:19.674Z,99930.19
2019-05-14T09:16:46.032Z,99924.71
2019-05-14T09:18:45.316Z,99923.27
2019-05-14T09:21:10.823Z,99912.05
2019-05-14T09:23:21.201Z,99910.41
2019-05-14T09:25:31.122Z,99913.48
2019-05-14T09:28:01.740Z,99909.30
2019-05-14T09:30:11.630Z,99916.92
2019-05-14T09:32:24.178Z,99913.37
2019-05-14T09:34:51.035Z,99915.55
2019-05-14T09:37:08.791Z,99903.34
2019-05-14T09:39:31.221Z,99907.60
2019-05-14T09:41:52.706Z,99905.55
2019-05-14T09:44:13.445Z,99893.36
2019-05-14T09:46:23.283Z,99901.77
2019-05-14T09:48:41.276Z,99894.84
2019-05-14T09:50:51.708Z,99886.75
2019-05-14T09:53:23.264Z,99883.23
2019-05-14T09:55:25.041Z,99887.50
2019-05-14T09:57:41.805Z,99877.30
2019-05-14T09:59:52.998Z,99881.08
2019-05-14T10:02:09.146Z,99880.42
2019-05-14T10:04:13.777Z,99877.89
2019-05-14T10:06:31.102Z,99877.32
2019-05-14T10:08:45.242Z,99878.73
2019-05-14T10:11:00.214Z,99871.30
2019-05-14T10:13:23.381Z,99874.27
2019-05-14T10:15:39.884Z,99868.46
2019-05-14T10:17:44.938Z,99870.89
2019-05-14T10:20:09.127Z,99861.72
2019-05-14T10:22:22.003Z,99869.88
2019-05-14T10:24:40.014Z,99864.48
2019-05-14T10:27:28.456Z,99861.97
2019-05-14T10:29:33.831Z,99860.64
2019-05-14T10:31:48.545Z,99854.02
2019-05-14T10:34:13.025Z,99856.14
2019-05-14T10:36:37.883Z,99853.89
2019-05-14T10:38:50.524Z,99859.25
2019-05-14T10:41:05.893Z,99857.28
2019-05-14T10:43:43.812Z,99852.95
2019-05-14T10:45:59.357Z,99845.55
2019-05-14T10:48:09.699Z,99848.52
2019-05-14T10:50:22.397Z,99848.48
2019-05-14T10:52:39.519Z,99849.77
2019-05-14T10:54:59.443Z,99849.27
2019-05-14T10:57:10.004Z,99833.66
2019-05-14T10:59:33.116Z,99835.82
2019-05-14T11:01:52.954Z,99831.01
2019-05-14T11:04:07.771Z,99826.75
2019-05-14T11:09:32.633Z,99823.66
2019-05-14T11:11:39.533Z,99820.74
2019-05-14T11:13:55.788Z,99814.07
2019-05-14T11:16:08.569Z,99810.02
2019-05-14T11:18:19.940Z,99807.00
2019-05-14T11:20:31.219Z,99804.64
2019-05-14T11:22:58.443Z,99802.42
2019-05-14T11:25:20.736Z,99802.34
2019-05-14T11:27:29.926Z,99787.36
2019-05-14T11:29:39.496Z,99785.48
2019-05-14T11:31:56.899Z,99781.48
2019-05-14T11:34:10.633Z,99782.73
2019-05-14T11:36:23.759Z,99776.73
2019-05-14T11:38:36.929Z,99779.53
2019-05-14T11:40:49.292Z,99785.30
2019-05-14T11:43:04.222Z,99787.39
2019-05-14T11:45:27.353Z,99787.69
2019-05-14T11:47:43.092Z,99785.52
2019-05-14T11:50:04.816Z,99797.67
2019-05-14T11:52:23.280Z,99783.98
2019-05-14T11:54:30.446Z,99781.88
2019-05-14T11:56:50.092Z,99791.45
2019-05-14T11:59:08.734Z,99774.73
2019-05-14T12:01:20.639Z,99777.08
2019-05-14T12:03:28.609Z,99771.20
2019-05-14T12:05:49.541Z,99776.03
2019-05-14T12:08:09.696Z,99771.57
2019-05-14T12:13:19.212Z,99764.48
2019-05-14T12:15:23.092Z,99761.41
2019-05-14T12:17:29.462Z,99765.12
2019-05-14T12:19:33.444Z,99758.09
2019-05-14T12:21:39.741Z,99758.06
2019-05-14T12:23:43.590Z,99742.00
2019-05-14T12:25:49.131Z,99744.28
2019-05-14T12:27:53.549Z,99750.06
2019-05-14T12:29:59.891Z,99749.61
2019-05-14T12:32:03.233Z,99753.86
2019-05-14T12:34:07.426Z,99746.27
2019-05-14T12:36:11.621Z,99753.36
2019-05-14T12:38:18.547Z,99750.26
2019-05-14T12:40:24.071Z,99746.91
2019-05-14T12:42:29.665Z,99749.66
2019-05-14T12:44:37.207Z,99741.95
2019-05-14T12:46:39.942Z,99740.81
2019-05-14T12:48:44.033Z,99738.03
2019-05-14T12:50:49.030Z,99739.70
2019-05-14T12:52:54.239Z,99736.05
2019-05-14T12:54:59.759Z,99736.43
2019-05-14T12:57:04.192Z,99732.81
2019-05-14T12:59:08.559Z,99730.79
2019-05-14T13:01:12.612Z,99735.34
2019-05-14T13:03:22.442Z,99740.42
2019-05-14T13:05:29.223Z,99723.83
2019-05-14T13:07:34.475Z,99731.42
2019-05-14T13:09:41.507Z,99727.56
2019-05-14T13:11:47.882Z,99714.76
2019-05-14T13:13:58.322Z,99716.55
2019-05-14T13:16:04.320Z,99710.88
2019-05-14T13:18:08.804Z,99705.87
2019-05-14T13:20:14.083Z,99704.05
2019-05-14T13:22:30.249Z,99705.28
2019-05-14T13:24:30.096Z,99701.52
2019-05-14T13:26:35.324Z,99699.64
2019-05-14T13:28:40.249Z,99690.73
2019-05-14T13:30:44.857Z,99700.72
2019-05-14T13:32:49.319Z,99704.41
2019-05-14T13:35:02.410Z,99708.67
2019-05-14T13:37:06.622Z,99694.03
2019-05-14T13:39:11.078Z,99692.62
2019-05-14T13:41:15.067Z,99693.70
2019-05-14T13:43:19.355Z,99688.17
2019-05-14T13:45:25.719Z,99684.31
2019-05-14T13:47:30.042Z,99685.90
2019-05-14T13:49:34.392Z,99689.13
2019-05-14T13:51:38.946Z,99680.34
2019-05-14T13:53:42.896Z,99679.50
2019-05-14T13:55:56.555Z,99674.28
2019-05-14T13:57:53.319Z,99683.15
2019-05-14T13:59:58.987Z,99684.26
2019-05-14T14:02:03.323Z,99671.86
2019-05-14T14:04:14.299Z,99674.04
2019-05-14T14:06:13.491Z,99667.20
2019-05-14T14:08:19.328Z,99669.73
2019-05-14T14:10:25.111Z,99663.67
2019-05-14T14:12:32.521Z,99653.96
2019-05-14T14:14:39.120Z,99654.70
2019-05-14T14:16:44.184Z,99656.71
2019-05-14T14:18:50.037Z,99649.13
2019-05-14T14:20:54.594Z,99647.30
2019-05-14T14:23:09.141Z,99658.02
2019-05-14T14:25:08.622Z,99645.95
2019-05-14T14:27:11.717Z,99644.30
2019-05-14T14:29:19.928Z,99641.05
2019-05-14T14:31:24.239Z,99633.61
2019-05-14T14:33:28.997Z,99640.39
2019-05-14T14:35:33.866Z,99639.77
2019-05-14T14:37:39.632Z,99643.56
2019-05-14T14:39:48.839Z,99635.47
2019-05-14T14:41:53.327Z,99630.08
2019-05-14T15:35:48.695Z,99594.27
2019-05-14T15:37:51.759Z,99594.38
2019-05-14T15:39:55.948Z,99600.35
2019-05-14T15:42:13.248Z,99594.49
2019-05-14T15:44:12.949Z,99591.68
2019-05-14T15:46:18.492Z,99598.74
2019-05-14T15:48:23.075Z,99598.67
2019-05-14T15:50:32.467Z,99591.73
2019-05-14T15:52:39.976Z,99582.56
2019-05-14T15:54:47.372Z,99590.72
2019-05-14T15:56:50.479Z,99585.20
2019-05-14T15:58:54.478Z,99582.69
2019-05-14T16:01:01.329Z,99581.08
2019-05-14T16:03:18.657Z,99576.16
2019-05-14T16:05:22.306Z,99579.70
2019-05-14T16:07:29.637Z,99576.93
2019-05-14T16:09:34.171Z,99582.65
2019-05-14T16:11:39.353Z,99571.41
2019-05-14T16:13:44.900Z,99572.23
2019-05-14T16:15:49.249Z,99569.77
2019-05-14T16:18:05.728Z,99565.38
2019-05-14T16:19:59.588Z,99573.81
2019-05-14T16:22:03.614Z,99568.81
2019-05-14T16:24:13.892Z,99573.34
2019-05-14T16:26:18.797Z,99574.56
2019-05-14T16:28:23.311Z,99579.06
2019-05-14T16:30:28.930Z,99580.54
2019-05-14T16:32:33.190Z,99573.33
2019-05-14T16:34:41.029Z,99602.84
2019-05-14T16:36:42.981Z,99598.64
2019-05-14T16:38:48.366Z,99620.39
2019-05-14T16:40:52.760Z,99600.98
2019-05-14T16:42:58.984Z,99592.13
2019-05-14T16:45:02.781Z,99607.42
2019-05-14T16:47:25.387Z,99608.20
2019-05-14T16:49:30.168Z,99600.56
2019-05-14T16:51:35.504Z,99600.84
2019-05-14T16:53:41.287Z,99602.82
2019-05-14T16:55:45.216Z,99600.56
2019-05-14T16:57:50.435Z,99602.11
2019-05-14T16:59:54.574Z,99607.02
2019-05-14T17:02:00.661Z,99603.00
2019-05-14T17:04:04.766Z,99611.36
2019-05-14T17:06:08.936Z,99611.19
2019-05-14T17:08:13.469Z,99616.98
2019-05-14T17:10:18.241Z,99617.73
2019-05-14T17:12:23.754Z,99615.95
2019-05-14T17:14:29.125Z,99615.38
2019-05-14T17:16:37.511Z,99623.55
2019-05-14T17:18:44.470Z,99637.20
2019-05-14T17:20:49.864Z,99641.95
2019-05-14T17:22:54.175Z,99647.08
2019-05-14T17:25:01.050Z,99654.67
2019-05-14T17:27:05.340Z,99655.02
2019-05-14T17:29:10.533Z,99655.06
2019-05-14T17:31:15.030Z,99657.33
2019-05-14T17:33:21.767Z,99662.01
2019-05-14T17:35:29.604Z,99662.79
2019-05-14T17:37:33.488Z,99655.77
2019-05-14T17:39:38.777Z,99648.56
2019-05-14T17:41:44.092Z,99656.19
2019-05-14T17:43:52.011Z,99652.67
2019-05-14T17:45:58.753Z,99654.09
2019-05-14T17:48:02.668Z,99655.19
2019-05-14T17:50:07.731Z,99653.81
2019-05-14T17:52:12.202Z,99651.67
2019-05-14T17:54:18.571Z,99655.52
2019-05-14T17:56:23.461Z,99648.27
2019-05-14T17:58:28.735Z,99648.33
2019-05-14T18:00:34.607Z,99653.27
2019-05-14T18:02:38.927Z,99646.90
2019-05-14T18:04:48.989Z,99648.09
2019-05-14T18:06:53.061Z,99649.66
2019-05-14T18:08:59.820Z,99645.18
2019-05-14T18:11:04.291Z,99649.81
2019-05-14T18:13:10.986Z,99648.17
2019-05-14T18:15:15.584Z,99647.86
2019-05-14T18:17:19.779Z,99638.75
2019-05-14T18:19:23.965Z,99642.46
2019-05-14T18:21:28.685Z,99645.07
2019-05-14T18:23:32.904Z,99638.33
2019-05-14T18:25:38.917Z,99637.15
2019-05-14T18:27:43.209Z,99643.15
2019-05-14T18:29:48.867Z,99634.11
2019-05-14T18:31:54.821Z,99629.08
2019-05-14T18:33:59.307Z,99635.78
2019-05-14T18:36:04.713Z,99629.94
2019-05-14T18:38:09.143Z,99629.10
2019-05-14T18:40:13.542Z,99630.47
2019-05-14T18:42:19.009Z,99631.56
2019-05-14T18:44:28.444Z,99629.56
2019-05-14T18:46:33.154Z,99634.63
2019-05-14T18:48:37.590Z,99640.35
2019-05-14T18:50:42.033Z,99640.04
2019-05-14T18:52:48.480Z,99640.75
2019-05-14T18:54:59.028Z,99643.89
2019-05-14T18:57:12.199Z,99649.22
2019-05-14T18:59:21.438Z,99642.33
2019-05-14T19:01:25.136Z,99639.84
2019-05-14T19:03:30.698Z,99641.98
2019-05-14T19:05:38.192Z,99637.81
2019-05-14T19:07:45.528Z,99633.03
2019-05-14T19:09:50.289Z,99634.19
2019-05-14T19:11:58.801Z,99638.47
2019-05-14T19:14:03.437Z,99641.13
2019-05-14T19:16:08.337Z,99646.78
2019-05-14T19:18:14.158Z,99646.92
2019-05-14T19:20:19.870Z,99646.26
2019-05-14T19:22:28.875Z,99644.30
2019-05-14T19:24:33.397Z,99648.33
2019-05-14T19:26:41.042Z,99648.99
2019-05-14T19:28:48.599Z,99647.45
2019-05-14T19:31:57.480Z,99651.66
2019-05-14T19:36:28.102Z,99647.12
2019-05-14T19:38:31.552Z,99648.03
2019-05-14T19:40:35.824Z,99644.94
2019-05-14T19:42:40.344Z,99652.53
2019-05-14T19:44:45.001Z,99647.28
2019-05-14T19:46:49.419Z,99648.65
2019-05-14T19:48:53.763Z,99651.83
2019-05-14T19:50:58.515Z,99653.19
2019-05-14T19:53:03.223Z,99649.58
2019-05-14T19:55:08.006Z,99653.28
2019-05-14T19:57:12.484Z,99654.18
2019-05-14T19:59:20.505Z,99652.98
2019-05-14T20:01:25.230Z,99655.31
2019-05-14T20:03:30.665Z,99650.78
2019-05-14T20:05:34.990Z,99650.39
2019-05-14T20:07:43.833Z,99650.63
2019-05-14T20:09:48.405Z,99652.36
2019-05-14T20:11:53.304Z,99646.52
2019-05-14T20:13:59.112Z,99649.87
2019-05-14T20:16:04.005Z,99653.49
2019-05-14T20:18:08.969Z,99653.09
2019-05-14T20:20:19.359Z,99650.77
2019-05-14T20:22:28.362Z,99653.33
2019-05-14T20:24:35.454Z,99652.09
2019-05-14T20:26:41.262Z,99653.30
2019-05-14T20:28:48.553Z,99650.72
2019-05-14T20:30:59.628Z,99651.16
2019-05-14T20:33:08.580Z,99644.19
2019-05-14T20:35:27.489Z,99645.70
2019-05-14T20:37:19.499Z,99643.27
2019-05-14T20:39:23.581Z,99634.72
2019-05-14T20:41:28.718Z,99631.59
2019-05-14T20:43:38.539Z,99633.08
2019-05-14T20:45:44.479Z,99635.43
2019-05-14T20:47:50.352Z,99630.42
2019-05-14T20:49:57.948Z,99628.97
2019-05-14T20:52:03.113Z,99623.67
2019-05-14T20:54:08.934Z,99625.36
2019-05-14T20:56:13.383Z,99622.31
2019-05-14T20:58:19.956Z,99621.30
2019-05-14T21:00:23.575Z,99623.25
2019-05-14T21:02:31.334Z,99620.07
2019-05-14T21:04:36.693Z,99615.05
2019-05-14T21:06:40.840Z,99620.09
2019-05-14T21:08:45.273Z,99621.89
2019-05-14T21:10:49.638Z,99619.25
2019-05-14T21:12:53.671Z,99621.08
2019-05-14T21:14:59.119Z,99613.45
2019-05-14T21:17:05.680Z,99608.91
2019-05-14T21:19:09.792Z,99612.73
2019-05-14T21:21:14.344Z,99607.95
2019-05-14T21:23:19.025Z,99601.57
2019-05-14T21:25:29.577Z,99607.22
2019-05-14T21:27:48.447Z,99602.84
2019-05-14T21:29:48.959Z,99604.73
2019-05-14T21:31:53.463Z,99602.44
2019-05-14T21:33:58.632Z,99600.98
2019-05-14T21:36:09.518Z,99602.25
2019-05-14T21:38:16.361Z,99601.78
2019-05-14T21:40:31.653Z,99595.84
2019-05-14T21:42:34.016Z,99596.08
2019-05-14T21:44:40.963Z,99600.59
2019-05-14T21:46:45.138Z,99600.62
2019-05-14T21:48:52.662Z,99594.39
2019-05-14T21:51:00.505Z,99594.11
2019-05-14T21:53:02.773Z,99600.48
2019-05-14T21:55:10.704Z,99592.47
2019-05-14T21:57:21.223Z,99596.73
2019-05-14T21:59:28.215Z,99597.71
2019-05-14T22:01:33.408Z,99598.03
2019-05-14T22:03:40.267Z,99592.41
2019-05-14T22:05:48.252Z,99602.02
2019-05-14T22:07:55.287Z,99591.59
2019-05-14T22:10:01.897Z,99590.05
2019-05-14T22:12:07.785Z,99589.52
2019-05-14T22:14:12.376Z,99589.75
2019-05-14T22:16:19.708Z,99586.38
2019-05-14T22:18:24.279Z,99585.58
2019-05-14T22:20:43.993Z,99585.05
2019-05-14T22:22:51.259Z,99581.30
2019-05-14T22:24:55.524Z,99581.42
2019-05-14T22:26:59.702Z,99580.70
2019-05-14T22:29:05.139Z,99573.68
2019-05-14T22:31:09.742Z,99574.09
2019-05-14T22:33:14.019Z,99577.55
2019-05-14T22:35:18.748Z,99575.45
2019-05-14T22:37:22.958Z,99569.41
2019-05-14T22:39:30.620Z,99576.80
2019-05-14T22:41:34.681Z,99573.69
2019-05-14T22:43:38.961Z,99573.07
2019-05-14T22:45:43.346Z,99570.55
2019-05-14T22:47:49.020Z,99567.63
2019-05-14T22:49:53.405Z,99571.18
2019-05-14T22:51:58.848Z,99569.94
2019-05-14T22:54:03.223Z,99561.78
2019-05-14T22:56:08.297Z,99566.90
2019-05-14T22:58:24.726Z,99566.69
2019-05-14T23:00:20.926Z,99565.13
2019-05-14T23:02:24.006Z,99569.60
2019-05-14T23:04:28.993Z,99565.42
2019-05-14T23:06:33.245Z,99570.02
2019-05-14T23:08:39.253Z,99570.85
2019-05-14T23:10:45.518Z,99572.21
2019-05-14T23:12:49.621Z,99572.10
2019-05-14T23:14:53.545Z,99573.17
2019-05-14T23:16:57.859Z,99569.50
2019-05-14T23:19:02.010Z,99574.91
2019-05-14T23:21:08.606Z,99569.19
2019-05-14T23:23:11.785Z,99570.54
2019-05-14T23:25:18.256Z,99563.12
2019-05-14T23:27:21.627Z,99560.95
2019-05-14T23:29:28.786Z,99563.67
2019-05-14T23:31:31.755Z,99562.61
2019-05-14T23:33:38.854Z,99558.95
2019-05-14T23:35:43.575Z,99565.54
2019-05-14T23:37:48.837Z,99567.53
2019-05-14T23:39:53.387Z,99561.26
2019-05-14T23:41:58.306Z,99559.47
2019-05-14T23:44:02.456Z,99559.28
2019-05-14T23:46:06.433Z,99550.59
2019-05-14T23:48:10.618Z,99548.20
2019-05-14T23:50:14.771Z,99546.42
2019-05-14T23:52:19.338Z,99545.17
2019-05-14T23:54:23.861Z,99546.42
2019-05-14T23:56:28.814Z,99542.47
2019-05-14T23:58:33.187Z,99545.67
